Terminal Aerodrome Forecast
Issued by NWS Wilmington, NC

Home | Current Version | Previous Version | Text Only | Print | Product List | Glossary On
Versions: 1 2 3 4 5 6 7 8 9 10 11 12 13 14 15 16 17
000
FTUS42 KILM 040555 CCA
TAFLBT
TAF COR
KLBT 040555Z 0406/0506 13002KT 5SM BR BKN150
      TEMPO 0408/0412 2SM BR SCT015 BKN050
     FM041300 14005KT P6SM BKN250
     FM041900 16008KT P6SM VCTS FEW030CB BKN050
     FM042300 19004KT P6SM BKN150=

USA.gov is the U.S. government's official web portal to all federal, state and local government web resources and services.